11/05/05 - 18h:38mDenunciar

General Dynamics F-16A Fighting Falcon

Rumando para pouso. Aeronave pertencente à Força Aérea Portuguesa.



Imagem de Jorge Manuel Antão Ruivo, retirada do site Jetphotos.net.





METAR SBPB 112100Z 06008KT 9999 FEW020 FEW025TCU 29/26 Q1009=

Comentários (0)

Fotos postadas a mais de 15 dias não podem receber comentários.